createdAt,value
2023-02-15T00:02:08.228Z,51.01
2023-02-15T00:04:48.706Z,51.09
2023-02-15T00:07:18.298Z,51.14
2023-02-15T00:09:47.597Z,51.20
2023-02-15T00:12:16.377Z,51.27
2023-02-15T00:14:45.122Z,51.22
2023-02-15T00:17:13.265Z,51.28
2023-02-15T00:19:42.010Z,51.51
2023-02-15T00:22:10.393Z,52.09
2023-02-15T00:24:38.740Z,52.30
2023-02-15T00:27:07.136Z,52.59
2023-02-15T00:29:35.397Z,52.73
2023-02-15T00:32:03.977Z,52.83
2023-02-15T00:34:32.358Z,52.09
2023-02-15T00:37:00.854Z,52.30
2023-02-15T00:39:30.096Z,51.70
2023-02-15T00:49:12.065Z,52.13
2023-02-15T00:51:45.277Z,51.71
2023-02-15T00:54:13.938Z,51.89
2023-02-15T00:56:42.202Z,51.96
2023-02-15T00:59:10.489Z,51.92
2023-02-15T01:01:38.915Z,51.81
2023-02-15T01:04:07.895Z,51.82
2023-02-15T01:06:36.531Z,51.63
2023-02-15T01:09:07.574Z,51.88
2023-02-15T01:26:03.912Z,52.66
2023-02-15T01:28:33.355Z,52.47
2023-02-15T01:31:10.863Z,52.79
2023-02-15T01:33:39.734Z,52.88
2023-02-15T01:36:08.191Z,53.11
2023-02-15T01:38:36.952Z,53.28
2023-02-15T01:41:27.436Z,53.15
2023-02-15T01:43:57.773Z,52.87
2023-02-15T01:46:34.373Z,52.47
2023-02-15T01:49:14.421Z,52.33
2023-02-15T01:51:43.566Z,52.23
2023-02-15T01:54:17.686Z,51.79
2023-02-15T01:56:45.968Z,51.64
2023-02-15T01:59:16.971Z,51.61
2023-02-15T02:01:45.333Z,51.50
2023-02-15T02:04:20.124Z,51.22
2023-02-15T02:06:49.609Z,51.10
2023-02-15T02:13:18.288Z,50.99
2023-02-15T02:16:00.886Z,50.21
2023-02-15T02:18:35.694Z,49.69
2023-02-15T02:21:18.208Z,49.03
2023-02-15T02:24:18.328Z,48.87
2023-02-15T02:27:08.416Z,49.17
2023-02-15T02:29:58.069Z,49.33
2023-02-15T02:32:34.873Z,50.25
2023-02-15T02:35:06.422Z,51.11
2023-02-15T02:37:42.687Z,51.28
2023-02-15T02:40:38.201Z,51.28
2023-02-15T02:43:20.208Z,51.40
2023-02-15T02:46:20.789Z,51.70
2023-02-15T02:48:49.624Z,51.98
2023-02-15T02:51:22.511Z,51.52
2023-02-15T02:53:52.726Z,51.43
2023-02-15T02:56:48.344Z,51.38
2023-02-15T02:59:31.366Z,50.67
2023-02-15T03:02:05.930Z,50.84
2023-02-15T03:04:37.140Z,50.85
2023-02-15T03:07:10.676Z,50.67
2023-02-15T03:09:44.870Z,50.14
2023-02-15T03:12:19.993Z,50.03
2023-02-15T03:14:53.029Z,50.07
2023-02-15T03:17:22.060Z,49.86
2023-02-15T03:19:51.582Z,49.69
2023-02-15T03:22:25.283Z,49.79
2023-02-15T03:25:21.415Z,49.23
2023-02-15T03:27:52.469Z,49.27
2023-02-15T03:30:22.105Z,49.40
2023-02-15T03:32:51.158Z,49.97
2023-02-15T03:35:24.047Z,49.61
2023-02-15T03:37:58.367Z,49.42
2023-02-15T03:40:51.933Z,49.61
2023-02-15T03:43:34.049Z,50.01
2023-02-15T03:46:09.987Z,49.72
2023-02-15T03:48:42.359Z,49.23
2023-02-15T03:51:34.599Z,49.20
2023-02-15T03:54:45.024Z,49.31
2023-02-15T03:57:41.194Z,49.11
2023-02-15T04:00:41.826Z,49.18
2023-02-15T04:03:40.604Z,49.79
2023-02-15T04:06:09.413Z,49.89
2023-02-15T04:08:56.657Z,49.68
2023-02-15T06:23:36.977Z,51.62
2023-02-15T06:26:05.462Z,51.60
2023-02-15T06:28:35.575Z,51.76
2023-02-15T06:31:04.771Z,50.98
2023-02-15T06:33:35.928Z,50.22
2023-02-15T06:36:05.109Z,50.21
2023-02-15T06:38:33.817Z,49.91
2023-02-15T06:41:01.954Z,49.74
2023-02-15T06:43:30.149Z,49.00
2023-02-15T06:45:58.868Z,49.09
2023-02-15T06:48:27.930Z,48.45
2023-02-15T06:50:56.309Z,48.66
2023-02-15T06:53:24.797Z,48.97
2023-02-15T06:55:53.071Z,48.64
2023-02-15T06:58:21.557Z,48.42
2023-02-15T07:00:50.647Z,48.39
2023-02-15T07:03:19.740Z,47.91
2023-02-15T07:05:49.975Z,48.25
2023-02-15T07:08:18.745Z,47.99
2023-02-15T07:10:47.136Z,47.78
2023-02-15T07:13:15.302Z,47.82
2023-02-15T07:15:49.075Z,47.93
2023-02-15T07:18:17.485Z,48.11
2023-02-15T07:20:45.972Z,48.00
2023-02-15T07:23:14.341Z,48.32
2023-02-15T07:25:42.819Z,48.67
2023-02-15T07:28:11.143Z,49.09
2023-02-15T07:30:39.732Z,48.90
2023-02-15T07:33:28.157Z,48.69
2023-02-15T07:36:02.294Z,48.99
2023-02-15T07:38:32.568Z,48.72
2023-02-15T07:41:01.783Z,49.02
2023-02-15T07:43:30.656Z,49.15
2023-02-15T07:46:10.041Z,48.93
2023-02-15T07:48:39.402Z,49.06
2023-02-15T07:51:10.657Z,49.05
2023-02-15T07:53:41.379Z,49.28
2023-02-15T07:56:11.974Z,49.25
2023-02-15T07:58:52.591Z,49.06
2023-02-15T08:01:28.603Z,49.32
2023-02-15T08:03:59.381Z,49.06
2023-02-15T08:06:29.624Z,48.73
2023-02-15T08:09:05.829Z,48.45
2023-02-15T08:11:38.581Z,48.81
2023-02-15T08:14:10.443Z,49.13
2023-02-15T08:16:47.399Z,49.45
2023-02-15T08:19:18.012Z,49.66
2023-02-15T08:21:48.472Z,49.48
2023-02-15T08:24:18.570Z,49.33
2023-02-15T08:26:49.016Z,49.53
2023-02-15T08:29:20.528Z,49.39
2023-02-15T08:31:49.117Z,49.03
2023-02-15T08:34:18.933Z,48.93
2023-02-15T08:36:47.323Z,49.35
2023-02-15T08:39:15.912Z,49.54
2023-02-15T08:41:45.511Z,49.62
2023-02-15T08:44:14.060Z,49.78
2023-02-15T08:46:44.373Z,50.22
2023-02-15T08:49:17.355Z,50.37
2023-02-15T08:51:45.574Z,50.10
2023-02-15T08:54:15.801Z,49.77
2023-02-15T08:56:44.812Z,50.33
2023-02-15T08:59:20.564Z,49.96
2023-02-15T09:01:52.088Z,50.20
2023-02-15T09:04:20.984Z,50.13
2023-02-15T09:06:49.662Z,49.88
2023-02-15T09:09:23.588Z,50.18
2023-02-15T09:11:57.893Z,50.33
2023-02-15T09:14:27.995Z,50.49
2023-02-15T09:16:57.240Z,50.04
2023-02-15T09:19:26.239Z,49.74
2023-02-15T09:21:59.641Z,49.76
2023-02-15T09:24:28.080Z,49.79
2023-02-15T09:27:00.865Z,49.58
2023-02-15T09:29:29.546Z,49.55
2023-02-15T09:31:57.902Z,49.38
2023-02-15T09:34:26.282Z,49.59
2023-02-15T09:36:54.721Z,49.40
2023-02-15T09:39:24.977Z,49.40
2023-02-15T09:42:06.082Z,49.06
2023-02-15T09:44:53.730Z,48.68
2023-02-15T09:47:22.398Z,48.12
2023-02-15T09:50:07.880Z,48.44
2023-02-15T09:52:58.425Z,48.39
2023-02-15T09:56:04.135Z,48.22
2023-02-15T09:59:03.539Z,47.99
2023-02-15T10:01:44.070Z,48.04
2023-02-15T10:04:24.860Z,47.87
2023-02-15T10:07:12.948Z,47.85
2023-02-15T10:10:13.390Z,47.59
2023-02-15T10:12:50.326Z,47.35
2023-02-15T10:15:21.776Z,47.06
2023-02-15T10:18:23.233Z,47.38
2023-02-15T10:21:05.604Z,46.73
2023-02-15T10:23:40.273Z,45.95
2023-02-15T10:26:42.239Z,45.18
2023-02-15T10:29:18.420Z,45.21
2023-02-15T10:31:49.177Z,45.49
2023-02-15T10:34:19.803Z,45.19
2023-02-15T10:37:13.632Z,44.50
2023-02-15T10:39:47.760Z,44.49
2023-02-15T10:42:33.741Z,44.56
2023-02-15T10:45:10.362Z,44.17
2023-02-15T10:48:05.108Z,44.03
2023-02-15T10:50:49.594Z,44.47
2023-02-15T10:54:06.684Z,44.67
2023-02-15T10:56:59.440Z,43.56
2023-02-15T10:59:33.649Z,42.34
2023-02-15T11:02:23.759Z,42.44
2023-02-15T11:04:56.415Z,41.19
2023-02-15T11:07:36.170Z,41.59
2023-02-15T14:31:32.185Z,28.11
2023-02-15T14:34:00.529Z,28.23
2023-02-15T14:36:28.981Z,27.62
2023-02-15T14:39:35.344Z,27.62
2023-02-15T14:42:21.884Z,27.59
2023-02-15T14:44:59.054Z,28.14
2023-02-15T14:47:32.566Z,28.79
2023-02-15T14:50:00.642Z,29.51
2023-02-15T14:52:29.780Z,29.97
2023-02-15T14:54:58.633Z,30.49
2023-02-15T14:57:27.849Z,30.38
2023-02-15T14:59:58.586Z,30.69
2023-02-15T15:02:48.372Z,30.86
2023-02-15T15:05:36.587Z,30.94
2023-02-15T15:08:06.020Z,31.07
2023-02-15T15:10:41.595Z,30.92
2023-02-15T15:13:31.835Z,31.22
2023-02-15T15:16:26.737Z,31.26
2023-02-15T15:18:55.977Z,31.53
2023-02-15T15:21:49.421Z,31.79
2023-02-15T15:24:54.333Z,32.32
2023-02-15T15:27:41.215Z,32.57
2023-02-15T15:30:15.666Z,32.79
2023-02-15T15:32:59.937Z,32.81
2023-02-15T15:35:47.034Z,32.95
2023-02-15T15:38:18.205Z,33.40
2023-02-15T15:41:18.790Z,33.67
2023-02-15T15:44:08.902Z,33.93
2023-02-15T15:47:00.211Z,34.19
2023-02-15T15:49:30.448Z,34.34
2023-02-15T15:52:01.621Z,34.30
2023-02-15T15:54:30.252Z,34.39
2023-02-15T15:57:02.376Z,34.10
2023-02-15T15:59:34.319Z,34.20
2023-02-15T16:02:09.141Z,34.24
2023-02-15T16:04:37.486Z,34.20
2023-02-15T16:07:15.826Z,34.41
2023-02-15T16:10:02.125Z,34.55
2023-02-15T16:12:33.226Z,34.88
2023-02-15T16:15:27.354Z,35.23
2023-02-15T16:17:57.427Z,35.33
2023-02-15T16:20:30.887Z,35.67
2023-02-15T16:23:22.394Z,36.11
2023-02-15T16:25:54.019Z,35.89
2023-02-15T16:28:22.086Z,36.05
2023-02-15T16:31:07.060Z,36.55
2023-02-15T16:33:38.596Z,36.62
2023-02-15T16:36:11.214Z,36.83
2023-02-15T16:38:43.206Z,36.92
2023-02-15T16:41:13.344Z,36.91
2023-02-15T16:43:42.192Z,37.30
2023-02-15T16:46:12.424Z,37.46
2023-02-15T16:48:44.548Z,36.80
2023-02-15T16:51:20.024Z,35.75
2023-02-15T16:53:49.147Z,36.06
2023-02-15T16:56:18.932Z,36.14
2023-02-15T16:58:47.616Z,36.34
2023-02-15T17:01:15.995Z,36.87
2023-02-15T17:03:46.137Z,37.01
2023-02-15T17:06:27.613Z,37.23
2023-02-15T17:09:15.662Z,37.52
2023-02-15T17:11:44.364Z,37.34
2023-02-15T17:14:15.491Z,36.86
2023-02-15T17:16:53.614Z,36.49
2023-02-15T17:19:49.668Z,36.00
2023-02-15T17:22:23.278Z,36.02
2023-02-15T17:25:02.684Z,36.47
2023-02-15T17:27:32.881Z,36.55
2023-02-15T17:30:04.556Z,36.73
2023-02-15T17:32:37.474Z,37.04
2023-02-15T17:35:26.284Z,37.21
2023-02-15T17:38:21.478Z,37.40
2023-02-15T17:40:49.757Z,37.43
2023-02-15T17:43:18.239Z,37.71
2023-02-15T17:45:50.963Z,37.99
2023-02-15T17:48:31.810Z,38.69
2023-02-15T17:51:01.823Z,39.17
2023-02-15T17:53:30.397Z,39.41
2023-02-15T17:55:58.678Z,39.33
2023-02-15T17:58:27.050Z,39.39
2023-02-15T18:01:15.013Z,39.68
2023-02-15T18:04:07.319Z,39.47
2023-02-15T18:06:55.882Z,39.31
2023-02-15T18:09:43.420Z,38.85
2023-02-15T18:12:23.786Z,38.55
2023-02-15T18:14:57.071Z,38.52
2023-02-15T18:17:48.489Z,38.70
2023-02-15T18:20:28.925Z,39.38
2023-02-15T18:22:57.292Z,40.07
2023-02-15T18:25:25.843Z,40.33
2023-02-15T18:27:55.348Z,39.76
2023-02-15T18:30:26.679Z,39.40
2023-02-15T18:32:59.283Z,39.49
2023-02-15T18:35:29.976Z,39.18
2023-02-15T18:37:58.783Z,39.22
2023-02-15T18:40:27.652Z,39.29
2023-02-15T18:42:57.231Z,39.20
2023-02-15T18:45:33.236Z,39.18
2023-02-15T18:48:01.872Z,39.39
2023-02-15T18:50:33.700Z,39.43
2023-02-15T18:53:03.059Z,39.39
2023-02-15T18:55:33.180Z,39.50
2023-02-15T18:58:01.615Z,39.34
2023-02-15T19:00:34.339Z,39.53
2023-02-15T19:03:02.721Z,39.63
2023-02-15T19:05:31.204Z,39.78
2023-02-15T19:08:00.145Z,39.86
2023-02-15T19:10:29.658Z,39.96
2023-02-15T19:12:57.881Z,40.02
2023-02-15T19:15:28.003Z,40.22
2023-02-15T19:17:56.690Z,40.33
2023-02-15T19:20:34.175Z,40.66
2023-02-15T19:23:02.880Z,40.96
2023-02-15T19:25:32.078Z,41.04
2023-02-15T19:28:00.137Z,41.34
2023-02-15T19:30:30.345Z,41.71
2023-02-15T19:32:58.843Z,42.06
2023-02-15T19:35:29.957Z,42.37
2023-02-15T19:37:59.748Z,42.85
2023-02-15T19:40:30.217Z,43.18
2023-02-15T19:42:58.575Z,43.34
2023-02-15T19:45:31.004Z,43.32
2023-02-15T19:48:01.205Z,43.14
2023-02-15T19:50:32.208Z,42.88
2023-02-15T19:53:02.177Z,42.54
2023-02-15T19:55:32.756Z,42.51
2023-02-15T19:58:01.681Z,42.71
2023-02-15T20:00:33.677Z,43.14
2023-02-15T20:03:01.860Z,42.92
2023-02-15T20:05:31.127Z,42.78
2023-02-15T20:07:59.314Z,43.12
2023-02-15T20:10:29.426Z,43.31
2023-02-15T20:12:57.942Z,43.49
2023-02-15T20:15:35.282Z,43.44
2023-02-15T20:18:04.467Z,43.58
2023-02-15T20:20:49.365Z,43.53
2023-02-15T20:23:20.734Z,43.34
2023-02-15T20:25:50.166Z,43.29
2023-02-15T20:28:26.985Z,43.42
2023-02-15T20:30:56.507Z,43.41
2023-02-15T20:33:25.266Z,43.48
2023-02-15T20:35:55.035Z,43.47
2023-02-15T20:56:43.614Z,43.69
2023-02-15T20:59:32.063Z,43.64
2023-02-15T21:02:05.516Z,44.16
2023-02-15T21:04:33.969Z,44.50
2023-02-15T21:07:02.399Z,44.42
2023-02-15T21:09:31.183Z,44.43
2023-02-15T21:11:59.795Z,44.72
2023-02-15T21:14:27.942Z,44.90
2023-02-15T21:16:56.322Z,44.83
2023-02-15T21:19:27.263Z,45.14
2023-02-15T21:21:56.265Z,45.17
2023-02-15T21:24:26.603Z,45.18
2023-02-15T21:26:55.370Z,45.28
2023-02-15T21:29:25.932Z,45.42
2023-02-15T21:31:54.572Z,45.50
2023-02-15T21:34:22.850Z,45.53
2023-02-15T21:36:51.240Z,45.48
2023-02-15T21:39:24.337Z,45.44
2023-02-15T21:42:11.968Z,45.20
2023-02-15T21:44:59.316Z,45.03
2023-02-15T21:47:48.571Z,45.12
2023-02-15T21:50:40.917Z,45.21
2023-02-15T21:53:25.873Z,45.35
2023-02-15T21:55:56.418Z,45.39
2023-02-15T21:58:26.328Z,45.44
2023-02-15T22:00:55.736Z,45.52
2023-02-15T22:03:25.623Z,45.61
2023-02-15T22:05:53.706Z,45.70
2023-02-15T22:08:22.109Z,45.66
2023-02-15T22:10:50.964Z,45.60
2023-02-15T22:13:29.648Z,45.81
2023-02-15T22:15:58.485Z,45.84
2023-02-15T22:18:31.374Z,46.10
2023-02-15T22:21:02.090Z,46.12
2023-02-15T22:23:31.138Z,46.24
2023-02-15T22:26:05.968Z,46.21
2023-02-15T22:28:38.186Z,46.26
2023-02-15T22:31:10.427Z,46.62
2023-02-15T22:33:38.625Z,46.88
2023-02-15T22:36:09.194Z,47.07
2023-02-15T22:38:38.564Z,47.27
2023-02-15T22:41:06.974Z,47.27
2023-02-15T22:43:43.092Z,47.05
2023-02-15T22:46:22.652Z,47.02
2023-02-15T22:48:51.846Z,47.37
2023-02-15T22:51:21.660Z,47.52
2023-02-15T22:53:51.943Z,47.86
2023-02-15T22:56:35.212Z,47.58
2023-02-15T22:59:06.255Z,47.60
2023-02-15T23:01:36.675Z,47.88
2023-02-15T23:04:04.931Z,47.86
2023-02-15T23:06:34.484Z,47.88
2023-02-15T23:09:02.641Z,47.80
2023-02-15T23:11:31.114Z,47.88
2023-02-15T23:13:59.801Z,47.56
2023-02-15T23:16:27.968Z,47.32
2023-02-15T23:18:57.073Z,47.27
2023-02-15T23:21:29.607Z,47.44
2023-02-15T23:24:17.386Z,47.49
2023-02-15T23:26:45.964Z,47.56
2023-02-15T23:29:22.955Z,47.89
2023-02-15T23:31:52.752Z,48.17
2023-02-15T23:34:29.538Z,48.12
2023-02-15T23:36:58.017Z,48.26
2023-02-15T23:39:46.414Z,48.31
2023-02-15T23:42:20.374Z,48.44
2023-02-15T23:44:50.916Z,48.55
2023-02-15T23:47:55.945Z,48.76
2023-02-15T23:50:27.296Z,48.92
2023-02-15T23:52:56.081Z,49.00
2023-02-15T23:55:25.967Z,48.99
2023-02-15T23:57:54.279Z,48.99
